Time;durP1;ratioP1;P1;durP2;ratioP2;P2;SDS_P1;SDS_P2;PMS_P1;PMS_P2;Temp;Humidity;BMP_temperature;BMP_pressure;BME280_temperature;BME280_humidity;BME280_pressure;Samples;Min_cycle;Max_cycle;Signal;HPM_P1;HPM_P2
2021/06/14 00:02:25;;;;;;;0.10;0.10;;;20.90;53.60;;;;;;5038199;28;20112;-87
2021/06/14 00:04:51;;;;;;;0.20;0.20;;;20.70;55.00;;;;;;5008915;28;20049;-87
2021/06/14 00:07:18;;;;;;;0.50;0.27;;;20.90;53.90;;;;;;5024566;28;20112;-87
2021/06/14 00:09:44;;;;;;;;;;;21.00;54.00;;;;;;5024670;28;20408;-87
2021/06/14 00:12:11;;;;;;;;;;;20.90;54.20;;;;;;5009551;28;19910;-87
2021/06/14 00:14:36;;;;;;;0.10;0.10;;;20.70;55.10;;;;;;5019007;28;19952;-87
2021/06/14 00:17:02;;;;;;;0.00;0.00;;;20.70;55.00;;;;;;5040530;28;20058;-88
2021/06/14 00:19:28;;;;;;;0.00;0.00;;;20.60;55.70;;;;;;5027953;28;20507;-87
2021/06/14 00:21:54;;;;;;;0.30;0.30;;;20.60;56.10;;;;;;5027747;28;20132;-87
2021/06/14 00:24:20;;;;;;;0.00;0.00;;;20.60;56.70;;;;;;5027867;28;20404;-87
2021/06/14 00:26:46;;;;;;;0.23;0.23;;;20.70;56.00;;;;;;5043711;28;20564;-87
2021/06/14 00:29:12;;;;;;;0.28;0.20;;;20.50;56.40;;;;;;5032091;28;20053;-87
2021/06/14 00:31:37;;;;;;;0.10;0.10;;;20.60;56.20;;;;;;5031272;28;20440;-87
2021/06/14 00:34:03;;;;;;;0.30;0.03;;;20.60;56.80;;;;;;5017470;28;20079;-87
2021/06/14 00:36:29;;;;;;;0.07;0.07;;;20.40;57.10;;;;;;5020884;28;20500;-87
2021/06/14 00:38:55;;;;;;;0.28;0.20;;;20.30;57.60;;;;;;5019240;28;20380;-87
2021/06/14 00:41:21;;;;;;;0.28;0.28;;;20.30;58.10;;;;;;5022185;28;20147;-88
2021/06/14 00:43:47;;;;;;;0.13;0.13;;;20.30;58.00;;;;;;5040563;28;20533;-87
2021/06/14 00:46:13;;;;;;;0.10;0.10;;;20.40;58.10;;;;;;5025886;28;20113;-87
2021/06/14 00:48:39;;;;;;;0.00;0.00;;;20.20;58.50;;;;;;5012765;28;20026;-87
2021/06/14 00:51:07;;;;;;;0.15;0.10;;;20.00;60.40;;;;;;5012346;28;20053;-87
2021/06/14 00:53:39;;;;;;;0.32;0.20;;;20.00;73.50;;;;;;5030127;28;20068;-87
2021/06/14 00:56:13;;;;;;;0.22;0.22;;;20.20;59.90;;;;;;5032261;28;20380;-87
2021/06/14 00:58:41;;;;;;;0.10;0.10;;;20.20;60.20;;;;;;5028570;28;20060;-86
2021/06/14 01:01:08;;;;;;;0.40;0.20;;;20.00;74.00;;;;;;5032053;28;20725;-87
2021/06/14 01:03:35;;;;;;;0.05;0.05;;;20.00;61.50;;;;;;5030024;28;20045;-87
2021/06/14 01:06:03;;;;;;;0.25;0.25;;;20.00;61.00;;;;;;5033297;28;20029;-87
2021/06/14 01:08:32;;;;;;;0.00;0.00;;;19.90;62.00;;;;;;5047558;28;20101;-87
2021/06/14 01:11:01;;;;;;;0.00;0.00;;;19.80;62.30;;;;;;5039981;28;20116;-87
2021/06/14 01:13:38;;;;;;;0.20;0.20;;;19.80;62.60;;;;;;5029702;28;20037;-87
2021/06/14 01:16:33;;;;;;;0.65;0.45;;;19.80;63.10;;;;;;5031567;28;20029;-87
2021/06/14 01:18:58;;;;;;;0.10;0.10;;;19.90;62.50;;;;;;5032581;28;20030;-87
2021/06/14 01:21:34;;;;;;;0.20;0.20;;;19.80;63.10;;;;;;5032186;28;20399;-87
2021/06/14 01:24:38;;;;;;;3.53;0.20;;;19.70;63.00;;;;;;5032237;28;20030;-87
2021/06/14 01:27:10;;;;;;;0.10;0.10;;;19.80;63.80;;;;;;5032278;28;20091;-87
2021/06/14 01:29:37;;;;;;;0.55;0.40;;;19.70;63.50;;;;;;5034244;28;20031;-87
2021/06/14 01:32:06;;;;;;;0.47;0.47;;;19.50;65.60;;;;;;5050819;28;20548;-87
2021/06/14 01:34:35;;;;;;;0.10;0.10;;;19.40;65.70;;;;;;5031921;28;20029;-87
2021/06/14 01:37:03;;;;;;;0.03;0.03;;;19.50;65.90;;;;;;5028776;28;20057;-87
2021/06/14 01:39:34;;;;;;;0.17;0.17;;;19.30;66.80;;;;;;5025367;28;20021;-87
2021/06/14 01:42:00;;;;;;;0.43;0.10;;;19.50;66.00;;;;;;5032162;28;20356;-87
2021/06/14 01:44:30;;;;;;;0.08;0.00;;;19.30;67.00;;;;;;5032802;28;20018;-87
2021/06/14 01:46:58;;;;;;;0.20;0.20;;;19.30;67.60;;;;;;5033068;28;20037;-87
2021/06/14 01:49:25;;;;;;;0.10;0.10;;;19.20;68.40;;;;;;5032983;28;20104;-87
2021/06/14 01:51:51;;;;;;;0.30;0.30;;;19.20;68.70;;;;;;5031966;28;20499;-87
2021/06/14 01:54:17;;;;;;;0.10;0.10;;;19.10;68.70;;;;;;5029691;28;20036;-87
2021/06/14 01:56:45;;;;;;;0.17;0.17;;;19.00;70.20;;;;;;5028639;28;20045;-87
2021/06/14 01:59:24;;;;;;;0.52;0.32;;;18.90;70.50;;;;;;5018374;28;20065;-87
2021/06/14 02:01:52;;;;;;;0.10;0.10;;;18.90;71.10;;;;;;5030298;28;20017;-87
2021/06/14 02:04:18;;;;;;;1.42;1.33;;;18.80;71.50;;;;;;5028896;28;20049;-87
2021/06/14 02:06:46;;;;;;;0.00;0.00;;;18.80;72.10;;;;;;5028858;28;20364;-86
2021/06/14 02:09:19;;;;;;;0.32;0.32;;;18.90;71.80;;;;;;5029597;28;20275;-87
2021/06/14 02:11:47;;;;;;;0.10;0.10;;;18.90;72.00;;;;;;5023689;28;20030;-86
2021/06/14 02:14:15;;;;;;;0.90;0.70;;;18.90;72.70;;;;;;5012476;28;20029;-87
2021/06/14 02:16:43;;;;;;;0.63;0.52;;;18.70;73.00;;;;;;5011673;28;20034;-87
2021/06/14 02:19:09;;;;;;;0.25;0.25;;;18.70;72.80;;;;;;5037017;28;20017;-87
2021/06/14 02:21:35;;;;;;;0.17;0.17;;;18.70;73.30;;;;;;5010875;28;20026;-86
2021/06/14 02:24:01;;;;;;;0.10;0.10;;;18.70;74.10;;;;;;5039562;28;20491;-86
2021/06/14 02:26:27;;;;;;;0.00;0.00;;;18.60;73.70;;;;;;5030260;28;20096;-86
2021/06/14 02:28:52;;;;;;;0.20;0.20;;;18.70;73.90;;;;;;5028148;28;20507;-87
2021/06/14 02:31:18;;;;;;;0.10;0.10;;;18.60;74.00;;;;;;5026766;28;20025;-86
2021/06/14 02:33:44;;;;;;;0.73;0.20;;;18.60;74.40;;;;;;5035113;28;20029;-87
2021/06/14 02:36:10;;;;;;;0.67;0.40;;;18.50;74.80;;;;;;5025676;28;20571;-87
2021/06/14 02:38:37;;;;;;;0.20;0.20;;;18.50;75.00;;;;;;5011011;28;20327;-87
2021/06/14 02:41:04;;;;;;;0.52;0.52;;;18.40;75.40;;;;;;5012479;28;20022;-87
2021/06/14 02:43:30;;;;;;;0.20;0.20;;;18.40;76.20;;;;;;5044347;28;20088;-87
2021/06/14 02:45:56;;;;;;;0.35;0.35;;;18.30;77.20;;;;;;5031398;28;20021;-87
2021/06/14 02:48:24;;;;;;;0.45;0.30;;;18.30;77.20;;;;;;5030158;28;20026;-87
2021/06/14 02:50:50;;;;;;;0.10;0.10;;;18.20;78.10;;;;;;5032343;28;20487;-87
2021/06/14 02:53:18;;;;;;;0.20;0.20;;;18.20;78.00;;;;;;5021768;28;20037;-87
2021/06/14 02:55:54;;;;;;;0.25;0.25;;;18.10;79.30;;;;;;5046577;28;20037;-87
2021/06/14 02:58:26;;;;;;;0.00;0.00;;;18.10;80.20;;;;;;5025429;28;20030;-87
2021/06/14 03:00:53;;;;;;;0.55;0.38;;;18.20;79.60;;;;;;5051653;28;20112;-87
2021/06/14 03:03:19;;;;;;;0.10;0.10;;;18.20;80.40;;;;;;5050496;28;20414;-87
2021/06/14 03:05:46;;;;;;;0.10;0.10;;;18.20;79.80;;;;;;5067181;28;20033;-87
2021/06/14 03:08:12;;;;;;;0.13;0.13;;;18.10;80.00;;;;;;5051037;28;20459;-87
2021/06/14 03:10:38;;;;;;;0.50;0.35;;;18.10;79.80;;;;;;5030726;28;20065;-87
2021/06/14 03:13:05;;;;;;;0.10;0.10;;;17.90;80.70;;;;;;5030876;28;20029;-87
2021/06/14 03:15:32;;;;;;;;;;;17.90;81.80;;;;;;5031729;28;20033;-87
2021/06/14 03:17:59;;;;;;;0.88;0.50;;;17.90;82.40;;;;;;5024522;28;19909;-87
2021/06/14 03:20:25;;;;;;;0.47;0.40;;;17.90;82.40;;;;;;5010564;28;20022;-87
2021/06/14 03:22:53;;;;;;;0.10;0.10;;;17.90;81.80;;;;;;5022980;28;20034;-87
2021/06/14 03:25:19;;;;;;;0.00;0.00;;;17.90;82.60;;;;;;5028183;28;20452;-86
2021/06/14 03:27:46;;;;;;;1.35;0.32;;;17.80;83.70;;;;;;5034855;28;20075;-87
2021/06/14 03:30:13;;;;;;;0.55;0.55;;;17.70;84.30;;;;;;5018953;28;20038;-87
2021/06/14 03:32:42;;;;;;;0.13;0.13;;;17.80;84.40;;;;;;5027745;28;20040;-87
2021/06/14 03:35:14;;;;;;;0.10;0.10;;;17.70;85.20;;;;;;5030328;28;20418;-87
2021/06/14 03:37:40;;;;;;;0.30;0.25;;;17.80;85.10;;;;;;5045280;28;20465;-87
2021/06/14 03:40:08;;;;;;;0.65;0.20;;;17.80;84.70;;;;;;5015850;28;20454;-87
2021/06/14 03:42:34;;;;;;;0.30;0.30;;;17.70;85.80;;;;;;5030067;28;20472;-86
2021/06/14 03:45:00;;;;;;;0.40;0.40;;;17.80;85.30;;;;;;5030999;28;20089;-86
2021/06/14 03:47:26;;;;;;;0.35;0.20;;;17.90;85.10;;;;;;5031250;28;20018;-88
2021/06/14 03:49:52;;;;;;;0.23;0.23;;;17.90;84.60;;;;;;5025889;28;20046;-88
2021/06/14 03:52:18;;;;;;;0.10;0.10;;;17.80;84.80;;;;;;5018879;28;20045;-89
2021/06/14 03:54:44;;;;;;;0.17;0.17;;;17.80;85.20;;;;;;5030279;28;20025;-89
2021/06/14 03:57:11;;;;;;;0.30;0.30;;;17.70;86.20;;;;;;5038699;28;20076;-89
2021/06/14 03:59:36;;;;;;;;;;;17.60;86.90;;;;;;5044000;28;20514;-89
2021/06/14 04:02:02;;;;;;;0.10;0.10;;;17.70;86.10;;;;;;5013414;28;19909;-89
2021/06/14 04:06:54;;;;;;;0.10;0.10;;;17.60;87.60;;;;;;5016438;28;20635;-89
2021/06/14 04:09:20;;;;;;;0.38;0.25;;;17.50;88.20;;;;;;5029369;28;20022;-88
2021/06/14 04:11:46;;;;;;;0.70;0.60;;;17.60;87.30;;;;;;5015927;28;20033;-85
2021/06/14 04:14:12;;;;;;;0.10;0.10;;;17.80;86.80;;;;;;5043552;28;20495;-86
2021/06/14 04:16:38;;;;;;;0.30;0.30;;;17.50;88.70;;;;;;5031820;28;20591;-86
2021/06/14 04:19:03;;;;;;;0.30;0.17;;;17.60;88.90;;;;;;5029153;28;20033;-87
2021/06/14 04:21:29;;;;;;;0.10;0.10;;;17.90;89.60;;;;;;5031992;28;20045;-86
2021/06/14 04:23:55;;;;;;;0.00;0.00;;;18.50;86.90;;;;;;5013246;28;20030;-90
2021/06/14 04:26:21;;;;;;;0.10;0.10;;;18.70;86.30;;;;;;5025932;28;20144;-91
2021/06/14 04:28:46;;;;;;;1.50;0.20;;;19.20;83.00;;;;;;5031160;28;20049;-88
2021/06/14 04:31:13;;;;;;;0.07;0.07;;;19.30;82.70;;;;;;5029728;28;20439;-88
2021/06/14 04:33:39;;;;;;;0.13;0.13;;;19.40;81.20;;;;;;5021465;28;20040;-87
2021/06/14 04:36:05;;;;;;;0.00;0.00;;;19.40;80.70;;;;;;5028930;28;20037;-87
2021/06/14 04:38:33;;;;;;;0.00;0.00;;;19.80;78.60;;;;;;5024485;28;20024;-87
2021/06/14 04:40:59;;;;;;;0.00;0.00;;;20.20;77.60;;;;;;5046302;28;20033;-87
2021/06/14 04:43:25;;;;;;;0.10;0.10;;;20.40;78.40;;;;;;5016826;28;20113;-88
2021/06/14 04:45:51;;;;;;;0.20;0.20;;;20.70;76.70;;;;;;5019996;28;20053;-88
2021/06/14 04:48:18;;;;;;;0.13;0.13;;;21.00;74.80;;;;;;5026485;28;20112;-87
2021/06/14 04:50:44;;;;;;;0.00;0.00;;;21.30;88.20;;;;;;5036483;28;20033;-87
2021/06/14 04:53:09;;;;;;;0.20;0.20;;;21.50;72.60;;;;;;5046599;28;20810;-88
2021/06/14 04:55:35;;;;;;;0.33;0.33;;;21.60;72.20;;;;;;5031120;28;20033;-87
2021/06/14 04:58:01;;;;;;;0.10;0.10;;;21.80;70.60;;;;;;5029849;28;20594;-87
2021/06/14 05:00:28;;;;;;;0.07;0.07;;;21.90;70.40;;;;;;5026678;28;20311;-87
2021/06/14 05:02:54;;;;;;;0.60;0.35;;;22.10;69.60;;;;;;5026476;28;20430;-87
2021/06/14 05:05:21;;;;;;;0.00;0.00;;;22.40;68.80;;;;;;5021652;28;20021;-85
2021/06/14 05:07:47;;;;;;;0.10;0.10;;;22.60;67.70;;;;;;5030665;28;20107;-86
2021/06/14 05:10:12;;;;;;;0.00;0.00;;;22.80;66.40;;;;;;5019100;28;20495;-86
2021/06/14 05:12:38;;;;;;;22.85;0.45;;;22.70;64.60;;;;;;5014595;28;20030;-85
2021/06/14 05:15:05;;;;;;;0.22;0.22;;;22.70;63.50;;;;;;5025322;28;20026;-85
2021/06/14 05:17:31;;;;;;;0.05;0.03;;;22.70;66.60;;;;;;5011852;28;20041;-87
2021/06/14 05:19:59;;;;;;;4.65;1.35;;;23.00;64.90;;;;;;5027447;28;20036;-88
2021/06/14 05:22:26;;;;;;;0.10;0.10;;;23.30;64.60;;;;;;5025826;28;20044;-87
2021/06/14 05:24:53;;;;;;;0.20;0.17;;;23.40;63.30;;;;;;5020822;28;20030;-87
2021/06/14 05:27:18;;;;;;;;;;;23.60;62.40;;;;;;5017428;28;20030;-87
2021/06/14 05:29:44;;;;;;;;;;;23.80;61.40;;;;;;5020740;28;20394;-88
2021/06/14 05:32:10;;;;;;;0.30;0.20;;;23.80;61.60;;;;;;5015884;28;19936;-90
2021/06/14 05:34:35;;;;;;;0.73;0.52;;;24.20;60.40;;;;;;5010000;28;20065;-89
2021/06/14 05:37:01;;;;;;;1.27;0.57;;;24.30;59.90;;;;;;5021263;28;20025;-88
2021/06/14 05:39:27;;;;;;;0.00;0.00;;;24.10;57.60;;;;;;5015669;28;20029;-90
2021/06/14 05:41:53;;;;;;;2.00;0.35;;;24.30;58.30;;;;;;5032432;28;20574;-89
2021/06/14 05:44:19;;;;;;;0.10;0.10;;;25.30;56.70;;;;;;5027206;28;20029;-89
2021/06/14 05:46:45;;;;;;;0.38;0.30;;;24.90;58.00;;;;;;5044861;28;20775;-89
2021/06/14 05:49:11;;;;;;;0.10;0.10;;;24.80;56.40;;;;;;5029408;28;20117;-90
2021/06/14 05:51:38;;;;;;;0.00;0.00;;;25.00;58.40;;;;;;5029191;28;20105;-90
2021/06/14 05:54:05;;;;;;;0.20;0.20;;;24.90;55.80;;;;;;5030091;28;20025;-89
2021/06/14 05:56:31;;;;;;;0.13;0.10;;;25.90;53.20;;;;;;5046209;28;20033;-90
2021/06/14 05:58:56;;;;;;;0.20;0.20;;;25.70;52.90;;;;;;5030855;28;20071;-90
2021/06/14 06:01:22;;;;;;;0.00;0.00;;;26.00;52.80;;;;;;5031539;28;20060;-91
2021/06/14 06:03:48;;;;;;;1.70;0.20;;;25.70;52.30;;;;;;5031149;28;20042;-90
2021/06/14 06:06:14;;;;;;;0.20;0.20;;;25.80;51.40;;;;;;5032321;28;20034;-92
2021/06/14 06:08:40;;;;;;;0.00;0.00;;;26.30;52.40;;;;;;5045650;28;20484;-90
2021/06/14 06:11:06;;;;;;;0.17;0.17;;;25.60;53.50;;;;;;5031697;28;20045;-91
2021/06/14 06:13:32;;;;;;;0.30;0.13;;;26.10;51.60;;;;;;5023900;28;20021;-89
2021/06/14 06:15:58;;;;;;;0.03;0.03;;;26.60;51.00;;;;;;5042647;28;20037;-89
2021/06/14 06:18:25;;;;;;;0.00;0.00;;;26.50;51.50;;;;;;5020832;28;20029;-91
2021/06/14 06:20:50;;;;;;;4.03;0.20;;;26.30;52.20;;;;;;5019829;28;20057;-90
2021/06/14 06:23:16;;;;;;;0.73;0.10;;;27.00;49.70;;;;;;5014299;28;20026;-91
2021/06/14 06:25:42;;;;;;;0.20;0.20;;;27.00;48.00;;;;;;5029256;28;20041;-92
2021/06/14 06:28:08;;;;;;;0.10;0.10;;;27.30;49.40;;;;;;5012072;28;20055;-92
2021/06/14 06:30:38;;;;;;;;;;;28.60;44.50;;;;;;5019021;28;20033;-91
2021/06/14 06:33:05;;;;;;;0.00;0.00;;;28.30;45.80;;;;;;5025504;28;19955;-92
2021/06/14 06:35:32;;;;;;;0.17;0.13;;;28.30;44.60;;;;;;5022509;28;20679;-92
2021/06/14 06:37:59;;;;;;;0.00;0.00;;;28.80;42.50;;;;;;5020056;28;20026;-92
2021/06/14 06:40:25;;;;;;;;;;;29.00;41.60;;;;;;5027225;28;20681;-92
2021/06/14 06:42:52;;;;;;;0.00;0.00;;;29.10;42.90;;;;;;5025526;28;19908;-92
2021/06/14 06:45:18;;;;;;;1.88;0.43;;;29.00;41.30;;;;;;5035685;28;20083;-91
2021/06/14 06:47:44;;;;;;;;;;;29.30;39.40;;;;;;5033219;28;20025;-92
2021/06/14 06:50:10;;;;;;;0.00;0.00;;;29.40;39.60;;;;;;5035918;28;19917;-92
2021/06/14 06:52:36;;;;;;;0.30;0.30;;;29.70;39.60;;;;;;5024516;28;20026;-91
2021/06/14 06:55:13;;;;;;;;;;;30.50;36.70;;;;;;5021968;28;20380;-91
2021/06/14 06:57:40;;;;;;;0.55;0.30;;;29.80;35.70;;;;;;5019517;28;19909;-92
2021/06/14 07:00:11;;;;;;;0.28;0.08;;;31.40;32.70;;;;;;5016988;28;20195;-92
2021/06/14 07:02:37;;;;;;;0.00;0.00;;;30.80;35.60;;;;;;5021908;28;20058;-92
2021/06/14 07:05:04;;;;;;;0.10;0.00;;;31.00;31.30;;;;;;5040440;28;20486;-92
2021/06/14 07:07:29;;;;;;;0.10;0.10;;;32.10;31.00;;;;;;5026847;28;20014;-92
2021/06/14 07:09:55;;;;;;;0.10;0.10;;;32.50;29.30;;;;;;5020945;28;20034;-92
2021/06/14 07:12:21;;;;;;;0.00;0.00;;;33.00;25.20;;;;;;5022475;28;20037;-93
2021/06/14 07:14:47;;;;;;;0.00;0.00;;;32.60;28.20;;;;;;5025194;28;20029;-92
2021/06/14 07:17:13;;;;;;;0.00;0.00;;;32.70;27.20;;;;;;5021297;28;20049;-91
2021/06/14 07:19:38;;;;;;;0.00;0.00;;;33.70;25.70;;;;;;5023705;28;20120;-93
2021/06/14 07:22:04;;;;;;;0.00;0.00;;;33.40;22.80;;;;;;5028521;28;20025;-92
2021/06/14 07:24:30;;;;;;;0.00;0.00;;;33.20;25.50;;;;;;5021359;28;20141;-92
2021/06/14 07:26:56;;;;;;;0.32;0.20;;;33.50;25.40;;;;;;5042998;28;20026;-92
2021/06/14 07:29:22;;;;;;;1.48;0.17;;;33.40;20.10;;;;;;5024452;28;20387;-92
2021/06/14 07:31:48;;;;;;;0.00;0.00;;;32.60;18.60;;;;;;5018909;28;20120;-92
2021/06/14 07:34:14;;;;;;;0.00;0.00;;;34.90;19.80;;;;;;5045920;28;20025;-93
2021/06/14 07:36:40;;;;;;;0.00;0.00;;;35.30;13.90;;;;;;5048190;28;20017;-94
2021/06/14 07:39:06;;;;;;;0.00;0.00;;;36.40;11.40;;;;;;5025795;28;20105;-93
2021/06/14 07:41:32;;;;;;;0.08;0.08;;;38.50;9.80;;;;;;5046831;28;20175;-94
2021/06/14 07:43:58;;;;;;;0.10;0.10;;;37.80;10.90;;;;;;5035602;28;20052;-92
2021/06/14 07:46:23;;;;;;;0.10;0.10;;;37.10;6.10;;;;;;5027838;28;20072;-92
2021/06/14 07:48:49;;;;;;;0.30;0.30;;;36.90;5.70;;;;;;5027530;28;20079;-93
2021/06/14 07:51:15;;;;;;;0.15;0.15;;;37.80;8.90;;;;;;5023729;28;20053;-93
2021/06/14 07:53:41;;;;;;;0.00;0.00;;;38.70;8.50;;;;;;5026301;28;20036;-93
2021/06/14 07:56:08;;;;;;;0.00;0.00;;;39.50;3.30;;;;;;5048236;28;20026;-93
2021/06/14 07:58:39;;;;;;;0.52;0.17;;;40.20;1.40;;;;;;5040652;28;20021;-93
2021/06/14 08:01:05;;;;;;;0.10;0.10;;;39.50;3.80;;;;;;5029594;28;20021;-93
2021/06/14 08:03:31;;;;;;;0.03;0.00;;;39.30;1.00;;;;;;5028597;28;20056;-92
2021/06/14 08:05:57;;;;;;;0.32;0.32;;;40.70;1.00;;;;;;5024624;28;20761;-94
2021/06/14 08:08:23;;;;;;;0.00;0.00;;;41.00;1.00;;;;;;5026916;28;20076;-94
2021/06/14 08:10:50;;;;;;;0.20;0.20;;;39.70;1.00;;;;;;5026416;28;20080;-94
2021/06/14 08:13:17;;;;;;;0.08;0.08;;;40.40;1.00;;;;;;5034028;28;20367;-93
2021/06/14 08:15:43;;;;;;;0.00;0.00;;;41.00;1.00;;;;;;5026078;28;20414;-93
2021/06/14 08:26:37;;;;;;;2.67;0.20;;;42.00;1.00;;;;;;4981800;28;20034;-93
2021/06/14 08:29:03;;;;;;;0.00;0.00;;;41.50;1.00;;;;;;4982728;28;20422;-93
2021/06/14 08:31:32;;;;;;;0.00;0.00;;;42.00;1.00;;;;;;4994012;28;20030;-93
2021/06/14 08:33:59;;;;;;;0.20;0.10;;;42.20;1.00;;;;;;4993106;28;20879;-94
2021/06/14 08:36:26;;;;;;;0.30;0.30;;;41.30;1.00;;;;;;4977614;28;20072;-93
2021/06/14 08:38:52;;;;;;;0.10;0.10;;;40.50;1.00;;;;;;4987266;28;20114;-94
2021/06/14 08:41:22;;;;;;;0.20;0.10;;;40.70;1.00;;;;;;4988584;28;20041;-93
2021/06/14 08:43:50;;;;;;;0.47;0.30;;;40.40;1.00;;;;;;4987104;28;20030;-94
2021/06/14 08:46:17;;;;;;;0.20;0.20;;;39.90;1.00;;;;;;4983407;28;20039;-93
2021/06/14 08:48:44;;;;;;;0.10;0.10;;;40.50;1.00;;;;;;4979911;28;20162;-94
2021/06/14 08:51:11;;;;;;;0.08;0.08;;;39.60;1.00;;;;;;4973267;28;20097;-94
2021/06/14 08:53:38;;;;;;;0.00;0.00;;;39.40;1.00;;;;;;4986847;28;20749;-93
2021/06/14 08:56:05;;;;;;;0.10;0.10;;;39.60;1.00;;;;;;4967640;28;20162;-93
2021/06/14 08:58:32;;;;;;;0.75;0.22;;;39.80;1.00;;;;;;4976158;28;20038;-94
2021/06/14 09:01:02;;;;;;;0.00;0.00;;;39.30;1.00;;;;;;5018465;28;20030;-94
2021/06/14 09:03:29;;;;;;;0.57;0.28;;;38.90;6.10;;;;;;5025816;28;20525;-93
2021/06/14 09:06:03;;;;;;;0.40;0.40;;;39.30;1.00;;;;;;5022205;28;20049;-94
2021/06/14 09:08:29;;;;;;;0.10;0.08;;;40.50;1.00;;;;;;5006076;28;20526;-95
2021/06/14 09:10:55;;;;;;;0.00;0.00;;;42.90;1.00;;;;;;5015052;28;20030;-94
2021/06/14 09:13:26;;;;;;;0.00;0.00;;;43.70;1.00;;;;;;5030564;28;20147;-95
2021/06/14 09:15:54;;;;;;;1.20;0.40;;;43.50;1.00;;;;;;5024582;28;20030;-94
2021/06/14 09:18:26;;;;;;;0.45;0.20;;;43.40;1.00;;;;;;5029685;28;20029;-93
2021/06/14 09:21:03;;;;;;;0.00;0.00;;;43.10;1.00;;;;;;5019485;28;20044;-93
2021/06/14 09:23:53;;;;;;;0.10;0.10;;;43.00;1.00;;;;;;5042796;28;20032;-93
2021/06/14 09:26:38;;;;;;;0.32;0.30;;;44.00;1.00;;;;;;5027738;28;20087;-94
2021/06/14 09:29:13;;;;;;;0.20;0.20;;;43.30;1.00;;;;;;5022381;28;20022;-94
2021/06/14 09:32:00;;;;;;;0.50;0.43;;;44.10;1.00;;;;;;5025257;28;20036;-93
2021/06/14 09:34:42;;;;;;;0.00;0.00;;;44.40;1.00;;;;;;5044903;28;21074;-94
2021/06/14 09:37:15;;;;;;;0.10;0.10;;;42.60;1.00;;;;;;5026347;28;20025;-94
2021/06/14 09:39:50;;;;;;;0.10;0.10;;;43.30;1.00;;;;;;5028424;28;20116;-94
2021/06/14 09:42:27;;;;;;;0.00;0.00;;;43.90;1.00;;;;;;5022335;28;20049;-94
2021/06/14 09:45:05;;;;;;;0.10;0.10;;;43.50;1.00;;;;;;5027734;28;21342;-94
2021/06/14 09:47:33;;;;;;;0.43;0.43;;;43.70;1.00;;;;;;5041754;28;20028;-94
2021/06/14 09:50:07;;;;;;;0.10;0.10;;;43.30;1.00;;;;;;5035960;28;20087;-93
2021/06/14 09:52:34;;;;;;;0.28;0.28;;;43.00;1.00;;;;;;5028092;28;20061;-94
2021/06/14 09:55:09;;;;;;;0.10;0.10;;;44.20;1.00;;;;;;5026687;28;20088;-94
2021/06/14 09:57:35;;;;;;;0.00;0.00;;;43.20;1.00;;;;;;5010169;28;20605;-93
2021/06/14 10:00:13;;;;;;;0.10;0.10;;;42.60;1.00;;;;;;5012384;28;20034;-93
2021/06/14 10:02:39;;;;;;;0.10;0.00;;;43.10;1.00;;;;;;5012463;28;20114;-94
2021/06/14 10:05:19;;;;;;;0.05;0.05;;;41.90;1.00;;;;;;5013826;28;20035;-94
2021/06/14 10:07:55;;;;;;;0.00;0.00;;;41.00;1.00;;;;;;5013706;28;20068;-93
2021/06/14 10:10:23;;;;;;;0.13;0.10;;;43.00;1.00;;;;;;4996734;28;20034;-94
2021/06/14 10:12:54;;;;;;;0.10;0.10;;;43.20;1.00;;;;;;4996201;28;20030;-94
2021/06/14 10:15:35;;;;;;;0.13;0.13;;;44.00;1.00;;;;;;4995292;28;20037;-94
2021/06/14 10:18:04;;;;;;;0.00;0.00;;;41.00;1.00;;;;;;4996089;28;20029;-94
2021/06/14 10:20:31;;;;;;;0.00;0.00;;;41.80;1.00;;;;;;4994880;28;20038;-93
2021/06/14 10:22:59;;;;;;;0.10;0.10;;;42.60;1.00;;;;;;4994945;28;20022;-92
2021/06/14 10:25:26;;;;;;;0.20;0.10;;;43.20;1.00;;;;;;5012801;28;20037;-94
2021/06/14 10:27:53;;;;;;;0.10;0.10;;;44.10;1.00;;;;;;4995579;28;20026;-94
2021/06/14 10:30:21;;;;;;;0.05;0.05;;;42.40;1.00;;;;;;4993985;28;20034;-93
2021/06/14 10:32:48;;;;;;;0.40;0.40;;;42.30;1.00;;;;;;5012752;28;20030;-94
2021/06/14 10:35:17;;;;;;;0.88;0.38;;;41.50;1.00;;;;;;4996457;28;20046;-94
2021/06/14 10:37:49;;;;;;;0.32;0.00;;;41.70;1.00;;;;;;4996800;28;20029;-94
2021/06/14 10:40:19;;;;;;;0.00;0.00;;;43.30;1.00;;;;;;4996168;28;20125;-93
2021/06/14 10:42:46;;;;;;;0.00;0.00;;;42.70;1.00;;;;;;5000453;28;20026;-96
2021/06/14 10:45:18;;;;;;;0.00;0.00;;;42.40;1.00;;;;;;4997012;28;20025;-94
2021/06/14 10:47:46;;;;;;;0.00;0.00;;;42.50;1.00;;;;;;4998210;28;20026;-95
2021/06/14 10:50:20;;;;;;;0.10;0.10;;;42.80;1.00;;;;;;4999267;28;20391;-95
2021/06/14 10:52:47;;;;;;;0.47;0.25;;;43.10;1.00;;;;;;4999843;28;20030;-94
2021/06/14 10:55:18;;;;;;;0.05;0.05;;;44.30;1.00;;;;;;4999114;28;20026;-95
2021/06/14 10:57:45;;;;;;;0.08;0.08;;;43.40;1.00;;;;;;4998651;28;20041;-95
2021/06/14 11:00:27;;;;;;;0.28;0.25;;;41.00;1.00;;;;;;4997884;28;20088;-95
2021/06/14 11:03:04;;;;;;;0.10;0.10;;;41.40;1.00;;;;;;4998922;28;20036;-95
2021/06/14 11:05:46;;;;;;;0.52;0.52;;;42.30;1.00;;;;;;4999036;28;20026;-95
2021/06/14 11:08:17;;;;;;;0.80;0.35;;;42.60;1.00;;;;;;4997722;28;20124;-95
2021/06/14 11:10:48;;;;;;;0.10;0.05;;;40.20;1.00;;;;;;4999928;28;20033;-94
2021/06/14 11:13:15;;;;;;;0.17;0.17;;;40.00;1.00;;;;;;4999783;28;20025;-95
2021/06/14 11:15:49;;;;;;;0.20;0.20;;;41.30;1.00;;;;;;4998515;28;20025;-95
2021/06/14 11:18:24;;;;;;;0.15;0.10;;;40.50;1.00;;;;;;4997465;28;20399;-95
2021/06/14 11:20:53;;;;;;;0.00;0.00;;;40.10;1.00;;;;;;4997203;28;20025;-94
2021/06/14 11:26:41;;;;;;;0.20;0.20;;;38.40;1.00;;;;;;5016140;28;20075;-95
2021/06/14 11:32:39;;;;;;;0.15;0.15;;;34.60;1.00;;;;;;5015450;28;20084;-94
2021/06/14 11:35:06;;;;;;;0.10;0.10;;;33.10;1.00;;;;;;4996622;28;20030;-94
2021/06/14 11:37:40;;;;;;;0.15;0.15;;;32.00;1.00;;;;;;4997773;28;20029;-95
2021/06/14 11:40:08;;;;;;;0.10;0.10;;;32.00;1.00;;;;;;4997692;28;20036;-95
2021/06/14 11:42:49;;;;;;;0.10;0.03;;;32.10;1.00;;;;;;4996281;28;20029;-95
2021/06/14 11:45:26;;;;;;;0.20;0.20;;;31.50;1.00;;;;;;4996184;28;20037;-96
2021/06/14 11:47:52;;;;;;;0.70;0.35;;;31.50;1.50;;;;;;4996149;28;20022;-95
2021/06/14 11:50:26;;;;;;;0.00;0.00;;;31.50;1.00;;;;;;4996545;28;20030;-95
2021/06/14 11:52:56;;;;;;;0.00;0.00;;;31.00;1.70;;;;;;4996587;28;20033;-95
2021/06/14 11:55:22;;;;;;;0.10;0.10;;;31.40;1.40;;;;;;4996851;28;20040;-95
2021/06/14 11:57:53;;;;;;;;;;;31.50;1.40;;;;;;4996594;28;20094;-95
2021/06/14 12:00:37;;;;;;;0.03;0.03;;;31.30;3.40;;;;;;4996046;28;19960;-94
2021/06/14 12:03:36;;;;;;;0.05;0.05;;;31.10;4.70;;;;;;4996172;28;20050;-94
2021/06/14 12:06:01;;;;;;;0.73;0.73;;;31.10;5.00;;;;;;4934317;29;20529;-95
2021/06/14 12:08:28;;;;;;;0.10;0.10;;;31.20;5.20;;;;;;4918637;29;20097;-95
2021/06/14 12:10:56;;;;;;;0.00;0.00;;;31.00;4.80;;;;;;4918595;29;20031;-94
2021/06/14 12:13:24;;;;;;;0.10;0.10;;;31.10;5.30;;;;;;4918327;29;20032;-95
2021/06/14 12:15:52;;;;;;;0.03;0.03;;;31.40;5.70;;;;;;4918469;29;20063;-95
2021/06/14 12:18:19;;;;;;;0.10;0.10;;;30.90;5.80;;;;;;4918428;29;20031;-95
2021/06/14 12:20:52;;;;;;;0.00;0.00;;;31.00;5.60;;;;;;4922763;29;20027;-95
2021/06/14 12:23:18;;;;;;;0.10;0.10;;;31.20;5.60;;;;;;4925949;29;20057;-95
2021/06/14 12:25:48;;;;;;;0.10;0.10;;;30.70;5.10;;;;;;4942007;29;20032;-95
2021/06/14 12:28:17;;;;;;;0.10;0.10;;;30.90;5.40;;;;;;4924996;29;20115;-96
2021/06/14 12:30:45;;;;;;;0.08;0.08;;;31.00;6.60;;;;;;4925829;29;20090;-95
2021/06/14 12:33:22;;;;;;;0.00;0.00;;;30.50;6.40;;;;;;4925105;29;20066;-95
2021/06/14 12:35:52;;;;;;;0.10;0.10;;;30.40;7.70;;;;;;4924629;29;20040;-95
2021/06/14 12:38:18;;;;;;;0.00;0.00;;;30.80;6.20;;;;;;4924596;29;20042;-95
2021/06/14 12:40:44;;;;;;;0.50;0.50;;;30.90;7.00;;;;;;4936419;28;20395;-94
2021/06/14 12:43:12;;;;;;;0.10;0.10;;;30.60;8.80;;;;;;5018380;28;20109;-94
2021/06/14 12:45:38;;;;;;;0.13;0.10;;;30.40;7.60;;;;;;5018505;28;20041;-95
2021/06/14 12:48:11;;;;;;;0.10;0.10;;;30.80;7.70;;;;;;5018256;28;20053;-94
2021/06/14 12:50:39;;;;;;;0.10;0.10;;;30.80;7.90;;;;;;5018497;28;20022;-94
2021/06/14 12:53:06;;;;;;;0.10;0.10;;;30.70;8.10;;;;;;5017744;28;20030;-95
2021/06/14 12:55:37;;;;;;;0.00;0.00;;;30.60;8.50;;;;;;5017942;28;20033;-95
2021/06/14 12:58:13;;;;;;;1.33;0.65;;;30.40;10.00;;;;;;5017473;28;20034;-94
2021/06/14 13:00:44;;;;;;;0.00;0.00;;;30.40;8.70;;;;;;5017065;28;20034;-94
2021/06/14 13:03:10;;;;;;;0.00;0.00;;;30.40;9.20;;;;;;5017302;28;20046;-94
2021/06/14 13:05:42;;;;;;;0.00;0.00;;;30.20;9.00;;;;;;5016848;28;20476;-94
2021/06/14 13:08:10;;;;;;;0.10;0.10;;;30.40;9.20;;;;;;5016878;28;20112;-95
2021/06/14 13:10:51;;;;;;;0.00;0.00;;;30.20;8.70;;;;;;5017237;28;20025;-94
2021/06/14 13:13:26;;;;;;;0.43;0.43;;;30.20;9.30;;;;;;5016964;28;20509;-95
2021/06/14 13:16:08;;;;;;;0.00;0.00;;;30.30;9.70;;;;;;5017125;28;20022;-94
2021/06/14 13:18:35;;;;;;;0.10;0.10;;;30.10;9.60;;;;;;5016861;28;20057;-94